Hauptseite
METAR-TAF:

METAR-TAF

Flughäfen :

Waddington, England

RAF Waddington

Breite: 53-10N, Länge: 000-31W, Höhe: 68 m

Beobachtung

Neuester Wetterbericht von vor 46 Minuten, um 00:50 UTC
Wind 11 kt aus Ost
Temperatur 0°C
Luftfeuchtigkeit 86%
Luftdruck 1028 hPa
Sichtweite 10 km oder mehr
keine Wolken unter 1500 m und keine Kumulonimbus oder Gewitterwolken

METAR: EGXW 250050Z 10011KT CAVOK 00/M02 Q1028 BLU

Zeit: 01:36 (01:36 UTC)

Prognose

Neuester Wetterbericht von vor 3 Stunden und 27 Minuten, um 22:09 UTC
Gültige Prognose vom 25 um 00 UTC bis 25 um 18 UTC
Wind 10 kt aus Ost
Sichtweite 10 km oder mehr
Aufgelockert bewölkt in der Höhe von 2500 ft
Wahrscheinlichkeit 30% :
Zeitweise
vom 25 um 00 UTC bis 25 um 06 UTC
Aufgelockert bewölkt in der Höhe von 2200 ft

TAF: EGXW 242209Z 2500/2518 09010KT 9999 SCT025 PROB30 TEMPO 2500/2506 SCT022

Wetterbeobachtungen und Prognosen von mehr als 4000 Flughäfen (METAR und TAF Bericht).

Die verfügbaren Stationen werden durch gelbe und rote Markierungen auf der Karte dargestellt.

Führen Sie die Maus auf sie, um den Namen der Station zu sehen.

Darauf klicken, um die Beobachtung von Wetterbeobachtungen und Prognosen zu sehen.

Um die Karte zu ändern : klicken Sie auf den grünen Tasten mit einem schwarzen Kreuz Zum Vergrößern, auf den grünen Button mit einem Gedankenstrich zu verkleinern, oder auf die grünen Pfeile für benachbarte Karten.


METAR-TAF: